Time;durP1;ratioP1;P1;durP2;ratioP2;P2;SDS_P1;SDS_P2;PMS_P1;PMS_P2;Temp;Humidity;BMP_temperature;BMP_pressure;BME280_temperature;BME280_humidity;BME280_pressure;Samples;Min_cycle;Max_cycle;Signal;HPM_P1;HPM_P2
2023/06/15 00:01:52;;;;;;;4.05;1.83;;;21.50;59.20;;;;;;5013435;28;20041;-80
2023/06/15 00:04:23;;;;;;;4.65;1.83;;;21.50;60.30;;;;;;5013633;28;20995;-81
2023/06/15 00:06:50;;;;;;;11.32;2.58;;;21.40;61.10;;;;;;5011886;28;20448;-81
2023/06/15 00:09:16;;;;;;;4.85;1.80;;;21.40;61.10;;;;;;5020041;28;20563;-80
2023/06/15 00:11:41;;;;;;;6.78;2.65;;;21.40;62.20;;;;;;5023790;28;20059;-80
2023/06/15 00:14:10;;;;;;;4.70;2.30;;;21.30;61.40;;;;;;5023407;28;20051;-80
2023/06/15 00:16:41;;;;;;;4.90;2.15;;;21.30;61.90;;;;;;5021686;28;20014;-82
2023/06/15 00:19:09;;;;;;;5.85;2.15;;;21.20;62.10;;;;;;5019163;28;20039;-80
2023/06/15 00:21:40;;;;;;;3.08;1.50;;;21.20;62.50;;;;;;5024254;28;20025;-81
2023/06/15 00:24:07;;;;;;;3.63;1.92;;;21.20;62.90;;;;;;5026016;28;20029;-82
2023/06/15 00:26:34;;;;;;;4.43;2.58;;;21.10;62.90;;;;;;5025983;28;20033;-77
2023/06/15 00:29:00;;;;;;;7.80;2.90;;;21.10;62.90;;;;;;5025361;28;20026;-81
2023/06/15 00:31:26;;;;;;;5.72;2.22;;;21.10;63.20;;;;;;5025001;28;20017;-80
2023/06/15 00:33:52;;;;;;;7.22;2.17;;;21.00;63.30;;;;;;5026217;28;20055;-81
2023/06/15 00:36:19;;;;;;;5.03;2.13;;;21.00;63.50;;;;;;5023893;28;20053;-81
2023/06/15 00:38:47;;;;;;;5.22;2.78;;;21.10;63.60;;;;;;5021926;28;20088;-79
2023/06/15 00:41:12;;;;;;;2.78;1.67;;;21.00;63.50;;;;;;5021704;28;20404;-79
2023/06/15 00:43:38;;;;;;;5.10;2.55;;;21.00;63.80;;;;;;5013646;28;20042;-79
2023/06/15 00:46:04;;;;;;;8.88;3.53;;;21.00;63.80;;;;;;5011892;28;20485;-83
2023/06/15 00:48:31;;;;;;;4.57;2.13;;;20.90;64.10;;;;;;5010198;28;20121;-76
2023/06/15 00:50:57;;;;;;;5.72;2.78;;;20.90;64.10;;;;;;5009991;28;20026;-80
2023/06/15 00:53:23;;;;;;;5.95;2.78;;;20.80;64.50;;;;;;5009834;28;20052;-81
2023/06/15 00:55:49;;;;;;;14.70;3.47;;;20.70;64.60;;;;;;5011889;28;20030;-81
2023/06/15 00:58:17;;;;;;;7.22;3.40;;;20.70;64.90;;;;;;5010777;28;20045;-81
2023/06/15 01:00:48;;;;;;;9.43;4.25;;;20.70;65.10;;;;;;5011138;28;20057;-81
2023/06/15 01:03:15;;;;;;;4.90;3.03;;;20.70;65.50;;;;;;5010422;28;20542;-82
2023/06/15 01:05:44;;;;;;;7.57;3.00;;;20.70;65.40;;;;;;5010112;28;20030;-80
2023/06/15 01:08:14;;;;;;;8.23;3.38;;;20.70;65.40;;;;;;5008058;28;20101;-79
2023/06/15 01:10:41;;;;;;;5.55;3.00;;;20.70;65.50;;;;;;5008036;28;20065;-81
2023/06/15 01:13:10;;;;;;;9.38;3.75;;;20.60;65.00;;;;;;5014552;28;20026;-81
2023/06/15 01:15:36;;;;;;;6.80;3.17;;;20.60;65.80;;;;;;5055404;28;20053;-79
2023/06/15 01:18:04;;;;;;;6.35;3.28;;;20.60;65.90;;;;;;4998786;28;20474;-80
2023/06/15 01:20:43;;;;;;;6.18;3.17;;;20.50;66.40;;;;;;5004974;28;20030;-81
2023/06/15 01:23:27;;;;;;;7.13;2.53;;;20.50;66.80;;;;;;5008365;28;20022;-80
2023/06/15 01:26:03;;;;;;;8.27;4.13;;;20.50;65.70;;;;;;5004344;28;20026;-81
2023/06/15 01:28:30;;;;;;;5.20;2.63;;;20.50;66.80;;;;;;5009262;28;20040;-80
2023/06/15 01:30:56;;;;;;;6.10;2.55;;;20.60;66.20;;;;;;5011212;28;20026;-82
2023/06/15 01:33:23;;;;;;;8.13;3.35;;;20.50;65.70;;;;;;5009095;28;20473;-82
2023/06/15 01:35:49;;;;;;;8.23;4.20;;;20.60;66.30;;;;;;5010333;28;20026;-82
2023/06/15 01:38:21;;;;;;;7.07;3.20;;;20.50;66.90;;;;;;5008285;28;20503;-81
2023/06/15 01:40:49;;;;;;;6.90;4.28;;;20.50;66.80;;;;;;5025752;28;20107;-82
2023/06/15 01:43:18;;;;;;;6.25;3.30;;;20.50;67.60;;;;;;5046033;28;20048;-81
2023/06/15 01:45:45;;;;;;;6.50;3.17;;;20.40;67.70;;;;;;5011423;28;20022;-81
2023/06/15 01:48:12;;;;;;;3.80;2.33;;;20.40;67.50;;;;;;5012798;28;20054;-83
2023/06/15 01:50:39;;;;;;;4.75;2.63;;;20.40;66.90;;;;;;5002357;28;20373;-83
2023/06/15 01:53:05;;;;;;;6.32;3.50;;;20.40;66.80;;;;;;5009449;28;20341;-79
2023/06/15 01:55:30;;;;;;;8.40;4.25;;;20.30;67.30;;;;;;5011993;28;20025;-81
2023/06/15 01:57:56;;;;;;;9.02;4.43;;;20.30;68.00;;;;;;5059534;28;20036;-82
2023/06/15 02:00:23;;;;;;;7.35;3.42;;;20.30;68.70;;;;;;5053885;28;20533;-83
2023/06/15 02:02:49;;;;;;;6.70;3.80;;;20.30;68.40;;;;;;5009730;28;20035;-80
2023/06/15 02:05:15;;;;;;;10.30;4.13;;;20.30;68.70;;;;;;5013026;28;20018;-83
2023/06/15 02:07:41;;;;;;;8.35;4.72;;;20.20;68.80;;;;;;4999313;28;20033;-82
2023/06/15 02:10:08;;;;;;;10.23;3.45;;;20.20;69.00;;;;;;5014830;28;20069;-81
2023/06/15 02:12:34;;;;;;;6.07;3.55;;;20.20;69.10;;;;;;5045542;28;20018;-81
2023/06/15 02:15:07;;;;;;;6.68;2.92;;;20.20;69.20;;;;;;5051123;28;20030;-80
2023/06/15 02:17:39;;;;;;;5.57;3.50;;;20.10;68.50;;;;;;4998525;28;20042;-81
2023/06/15 02:20:09;;;;;;;6.30;3.58;;;20.10;68.10;;;;;;5005250;28;20038;-81
2023/06/15 02:22:35;;;;;;;8.07;3.15;;;20.10;68.80;;;;;;5008367;28;20045;-81
2023/06/15 02:25:01;;;;;;;11.98;4.13;;;20.10;69.50;;;;;;5006894;28;20515;-81
2023/06/15 02:27:28;;;;;;;10.48;4.32;;;20.00;70.00;;;;;;5009034;28;20129;-81
2023/06/15 02:29:55;;;;;;;7.25;3.72;;;19.90;70.80;;;;;;5009607;28;20539;-82
2023/06/15 02:32:34;;;;;;;7.15;3.78;;;19.90;71.00;;;;;;5008885;28;20026;-80
2023/06/15 02:35:11;;;;;;;11.13;4.50;;;19.80;71.00;;;;;;5010088;28;20060;-80
2023/06/15 02:37:43;;;;;;;8.73;3.83;;;19.80;71.30;;;;;;5007852;28;20034;-80
2023/06/15 02:40:09;;;;;;;7.25;4.07;;;19.70;71.00;;;;;;4997138;28;20040;-81
2023/06/15 02:42:35;;;;;;;14.07;4.70;;;19.70;71.80;;;;;;5006018;28;20062;-80
2023/06/15 02:45:02;;;;;;;5.53;3.78;;;19.70;72.00;;;;;;5009351;28;20464;-81
2023/06/15 02:47:31;;;;;;;7.85;4.30;;;19.70;72.40;;;;;;5009345;28;20037;-80
2023/06/15 02:49:59;;;;;;;8.77;4.53;;;19.70;72.20;;;;;;5041302;28;20042;-79
2023/06/15 02:52:26;;;;;;;5.80;3.80;;;19.70;71.80;;;;;;5015047;28;20436;-80
2023/06/15 02:54:52;;;;;;;8.70;4.18;;;19.70;72.00;;;;;;5014775;28;20026;-83
2023/06/15 02:57:17;;;;;;;6.72;3.72;;;19.60;72.10;;;;;;5027720;28;20026;-81
2023/06/15 02:59:44;;;;;;;8.02;4.22;;;19.60;72.40;;;;;;5028928;28;20159;-81
2023/06/15 03:02:10;;;;;;;9.90;4.22;;;19.60;72.40;;;;;;5026539;28;20478;-81
2023/06/15 03:04:44;;;;;;;7.07;3.67;;;19.60;72.70;;;;;;5024641;28;20021;-81
2023/06/15 03:07:13;;;;;;;8.18;4.68;;;19.50;72.60;;;;;;5015142;28;20036;-83
2023/06/15 03:09:38;;;;;;;8.90;4.80;;;19.50;72.90;;;;;;5013379;28;20052;-81
2023/06/15 03:12:04;;;;;;;6.18;4.00;;;19.50;72.80;;;;;;5027745;28;20033;-80
2023/06/15 03:14:30;;;;;;;9.77;4.20;;;19.50;73.60;;;;;;5019634;28;20037;-82
2023/06/15 03:16:56;;;;;;;7.03;4.47;;;19.50;72.90;;;;;;5023324;28;20025;-81
2023/06/15 03:19:22;;;;;;;10.98;4.55;;;19.40;73.20;;;;;;5011395;28;20084;-82
2023/06/15 03:21:47;;;;;;;7.95;4.63;;;19.40;72.90;;;;;;5010024;28;20562;-81
2023/06/15 03:24:16;;;;;;;11.13;4.57;;;19.40;73.10;;;;;;5004462;28;20022;-81
2023/06/15 03:26:43;;;;;;;8.52;5.10;;;19.40;73.20;;;;;;5009981;28;20061;-81
2023/06/15 03:29:09;;;;;;;6.93;4.00;;;19.40;73.10;;;;;;5008278;28;20038;-82
2023/06/15 03:31:40;;;;;;;9.68;4.75;;;19.40;73.10;;;;;;5009447;28;20381;-81
2023/06/15 03:34:07;;;;;;;12.02;5.20;;;19.40;73.20;;;;;;5008425;28;20496;-81
2023/06/15 03:36:32;;;;;;;10.30;4.60;;;19.40;73.20;;;;;;5008878;28;20030;-80
2023/06/15 03:38:58;;;;;;;6.57;4.13;;;19.30;73.10;;;;;;5007422;28;20052;-81
2023/06/15 03:41:27;;;;;;;9.25;4.65;;;19.30;73.10;;;;;;5008955;28;20026;-80
2023/06/15 03:43:53;;;;;;;9.00;3.95;;;19.40;73.20;;;;;;5007750;28;20112;-81
2023/06/15 03:46:18;;;;;;;9.43;4.82;;;19.30;73.20;;;;;;5008999;28;20104;-81
2023/06/15 03:48:45;;;;;;;8.10;4.60;;;19.30;73.30;;;;;;5008551;28;20578;-80
2023/06/15 03:51:11;;;;;;;7.70;4.60;;;19.30;73.40;;;;;;5008789;28;20029;-82
2023/06/15 03:53:37;;;;;;;8.77;4.22;;;19.30;73.30;;;;;;5008268;28;20022;-81
2023/06/15 03:56:02;;;;;;;6.32;4.28;;;19.30;73.20;;;;;;5008554;28;20030;-81
2023/06/15 03:58:28;;;;;;;8.68;4.13;;;19.30;73.40;;;;;;5008378;28;20091;-80
2023/06/15 04:00:56;;;;;;;9.27;5.00;;;19.30;73.50;;;;;;5009656;28;20018;-81
2023/06/15 04:03:21;;;;;;;9.43;4.68;;;19.30;73.20;;;;;;5005562;28;20464;-82
2023/06/15 04:05:49;;;;;;;7.97;4.47;;;19.30;73.40;;;;;;5003692;28;20113;-83
2023/06/15 04:08:14;;;;;;;8.95;4.65;;;19.30;73.50;;;;;;5009215;28;20030;-82
2023/06/15 04:10:40;;;;;;;6.93;4.43;;;19.40;73.60;;;;;;5082325;28;20127;-82
2023/06/15 04:13:06;;;;;;;6.97;4.10;;;19.30;73.50;;;;;;5009206;28;20026;-83
2023/06/15 04:15:32;;;;;;;7.30;4.43;;;19.30;73.40;;;;;;5009464;28;20479;-83
2023/06/15 04:18:00;;;;;;;8.98;4.47;;;19.30;74.30;;;;;;5008715;28;20453;-82
2023/06/15 04:20:30;;;;;;;8.40;4.40;;;19.40;73.10;;;;;;5008692;28;20026;-80
2023/06/15 04:22:58;;;;;;;8.25;4.30;;;19.40;73.60;;;;;;5007708;28;20030;-82
2023/06/15 04:25:27;;;;;;;8.25;3.97;;;19.50;73.80;;;;;;5008711;28;20100;-84
2023/06/15 04:27:53;;;;;;;7.18;4.35;;;19.50;73.60;;;;;;4994191;28;20018;-81
2023/06/15 04:30:24;;;;;;;25.95;4.90;;;19.50;73.50;;;;;;5007359;28;20442;-81
2023/06/15 04:32:57;;;;;;;9.68;4.20;;;19.60;73.40;;;;;;5008360;28;20048;-81
2023/06/15 04:35:24;;;;;;;7.05;4.45;;;19.60;73.40;;;;;;5007656;28;20076;-81
2023/06/15 04:37:52;;;;;;;7.22;3.92;;;19.70;73.40;;;;;;5009556;28;20074;-82
2023/06/15 04:40:20;;;;;;;9.25;4.75;;;19.70;73.00;;;;;;5012473;28;20029;-82
2023/06/15 04:42:46;;;;;;;8.50;4.90;;;19.80;73.40;;;;;;5001742;28;20022;-81
2023/06/15 04:45:12;;;;;;;7.75;4.50;;;19.80;73.10;;;;;;5007483;28;20036;-81
2023/06/15 04:47:38;;;;;;;11.05;5.13;;;19.80;72.50;;;;;;5007255;28;20049;-82
2023/06/15 04:50:04;;;;;;;7.18;4.28;;;19.80;72.30;;;;;;5007552;28;20029;-81
2023/06/15 04:52:30;;;;;;;8.73;4.38;;;19.90;72.50;;;;;;5007920;28;20057;-82
2023/06/15 04:54:55;;;;;;;8.52;4.53;;;19.90;73.00;;;;;;5008583;28;20034;-82
2023/06/15 04:57:24;;;;;;;9.70;4.78;;;19.90;71.90;;;;;;5007781;28;20087;-81
2023/06/15 04:59:49;;;;;;;7.78;4.38;;;20.00;71.60;;;;;;5011775;28;20124;-80
2023/06/15 05:02:15;;;;;;;9.27;4.10;;;20.00;71.50;;;;;;5009727;28;20076;-80
2023/06/15 05:04:41;;;;;;;6.65;3.63;;;20.00;71.70;;;;;;5008392;28;20030;-81
2023/06/15 05:07:06;;;;;;;8.13;4.85;;;20.10;71.50;;;;;;5008681;28;20493;-80
2023/06/15 05:09:32;;;;;;;11.02;4.60;;;20.20;71.30;;;;;;5046157;28;20022;-82
2023/06/15 05:11:58;;;;;;;7.40;3.70;;;20.30;71.00;;;;;;5010229;28;20030;-82
2023/06/15 05:14:26;;;;;;;8.60;4.40;;;20.30;70.50;;;;;;5004170;28;20044;-81
2023/06/15 05:16:51;;;;;;;8.32;4.03;;;20.40;70.50;;;;;;5006628;28;20481;-81
2023/06/15 05:19:18;;;;;;;11.07;5.25;;;20.50;70.50;;;;;;5007405;28;20041;-82
2023/06/15 05:21:44;;;;;;;8.80;4.30;;;20.60;70.40;;;;;;5011959;28;20049;-81
2023/06/15 05:24:10;;;;;;;12.63;4.38;;;20.70;70.00;;;;;;5012926;28;20075;-80
2023/06/15 05:26:36;;;;;;;9.70;4.18;;;20.80;69.60;;;;;;4994254;28;20046;-80
2023/06/15 05:29:06;;;;;;;9.70;4.50;;;20.90;69.30;;;;;;5008252;28;20444;-80
2023/06/15 05:31:32;;;;;;;;;;;20.90;69.10;;;;;;5006946;28;20546;-79
2023/06/15 05:33:58;;;;;;;10.27;4.85;;;21.00;69.00;;;;;;5007796;28;19909;-80
2023/06/15 05:36:30;;;;;;;8.60;4.55;;;21.00;68.10;;;;;;5006683;28;20071;-79
2023/06/15 05:38:56;;;;;;;9.18;4.25;;;21.10;68.10;;;;;;5005658;28;20461;-79
2023/06/15 05:41:22;;;;;;;9.68;4.68;;;21.00;68.10;;;;;;5006765;28;20397;-79
2023/06/15 05:43:47;;;;;;;8.82;4.38;;;21.10;68.20;;;;;;5009860;28;20034;-80
2023/06/15 05:46:13;;;;;;;8.80;4.75;;;21.20;68.30;;;;;;5007111;28;20025;-79
2023/06/15 05:48:39;;;;;;;8.15;4.75;;;21.30;67.80;;;;;;5006356;28;20046;-79
2023/06/15 05:51:04;;;;;;;7.93;4.72;;;21.20;67.50;;;;;;5005161;28;20518;-80
2023/06/15 05:53:30;;;;;;;8.73;4.93;;;21.20;67.50;;;;;;5008887;28;20131;-80
2023/06/15 05:55:57;;;;;;;7.20;3.95;;;21.30;67.60;;;;;;5012853;28;20082;-81
2023/06/15 05:58:24;;;;;;;7.88;4.00;;;21.40;67.80;;;;;;5016278;28;20043;-80
2023/06/15 06:00:50;;;;;;;8.65;4.22;;;21.50;66.90;;;;;;5014177;28;20068;-80
2023/06/15 06:03:15;;;;;;;9.07;4.13;;;21.70;67.60;;;;;;5014562;28;20496;-80
2023/06/15 06:05:41;;;;;;;7.53;4.00;;;21.70;65.80;;;;;;5013937;28;20620;-79
2023/06/15 06:08:08;;;;;;;12.00;5.07;;;21.80;65.80;;;;;;4998861;28;20029;-79
2023/06/15 06:10:35;;;;;;;5.45;2.90;;;21.90;64.90;;;;;;5012568;28;20038;-79
2023/06/15 06:13:04;;;;;;;9.57;3.08;;;21.90;64.80;;;;;;5012629;28;20093;-79
2023/06/15 06:15:29;;;;;;;5.63;2.55;;;22.00;64.50;;;;;;5014735;28;20075;-78
2023/06/15 06:17:55;;;;;;;8.13;2.95;;;22.20;63.90;;;;;;5011421;28;20065;-79
2023/06/15 06:20:20;;;;;;;8.93;2.28;;;22.30;63.50;;;;;;5010942;28;20030;-78
2023/06/15 06:22:46;;;;;;;7.07;2.72;;;22.40;63.20;;;;;;5011432;28;20026;-80
2023/06/15 06:25:12;;;;;;;8.45;2.47;;;22.50;62.70;;;;;;5011503;28;20032;-79
2023/06/15 06:27:38;;;;;;;5.25;2.30;;;22.70;62.50;;;;;;4999981;28;20022;-79
2023/06/15 06:30:04;;;;;;;8.07;3.17;;;22.80;62.20;;;;;;5010933;28;20128;-81
2023/06/15 06:32:30;;;;;;;6.20;2.90;;;22.90;61.90;;;;;;5011455;28;20108;-80
2023/06/15 06:34:56;;;;;;;7.72;3.25;;;23.10;61.80;;;;;;5011037;28;20485;-80
2023/06/15 06:37:22;;;;;;;6.07;2.88;;;23.10;61.50;;;;;;5013066;28;20041;-80
2023/06/15 06:39:47;;;;;;;10.38;2.95;;;23.20;61.50;;;;;;5012627;28;20064;-78
2023/06/15 06:42:13;;;;;;;5.43;2.33;;;23.30;61.00;;;;;;5012307;28;20061;-79
2023/06/15 06:44:39;;;;;;;7.05;3.35;;;23.40;60.50;;;;;;5013381;28;20029;-79
2023/06/15 06:47:06;;;;;;;7.22;2.92;;;23.50;60.70;;;;;;5018774;28;20034;-79
2023/06/15 06:49:31;;;;;;;6.30;3.15;;;23.70;60.10;;;;;;5013913;28;20050;-79
2023/06/15 06:51:57;;;;;;;6.13;2.70;;;23.80;59.80;;;;;;5017267;28;20089;-80
2023/06/15 06:54:22;;;;;;;7.93;3.45;;;23.90;59.80;;;;;;5015219;28;20441;-79
2023/06/15 06:56:48;;;;;;;5.03;2.35;;;24.10;58.50;;;;;;5014535;28;20026;-79
2023/06/15 06:59:14;;;;;;;4.75;2.60;;;24.20;58.90;;;;;;5014098;28;20614;-81
2023/06/15 07:01:42;;;;;;;4.80;2.67;;;24.40;58.50;;;;;;5017395;28;20030;-80
2023/06/15 07:04:08;;;;;;;7.28;2.63;;;24.60;58.20;;;;;;5015412;28;20022;-79
2023/06/15 07:06:33;;;;;;;5.85;3.30;;;24.70;58.10;;;;;;5009645;28;20018;-80
2023/06/15 07:08:59;;;;;;;4.90;2.75;;;24.70;58.00;;;;;;5010553;28;20026;-80
2023/06/15 07:11:26;;;;;;;6.35;2.72;;;24.70;58.10;;;;;;5012212;28;20026;-79
2023/06/15 07:13:52;;;;;;;5.03;2.80;;;24.70;58.10;;;;;;5011189;28;20053;-80
2023/06/15 07:16:17;;;;;;;6.85;2.90;;;24.80;57.90;;;;;;5010189;28;20018;-79
2023/06/15 07:18:43;;;;;;;5.50;2.90;;;25.00;57.90;;;;;;5009578;28;20041;-80
2023/06/15 07:21:09;;;;;;;6.10;3.17;;;25.10;57.40;;;;;;5011051;28;20469;-78
2023/06/15 07:23:34;;;;;;;5.72;2.58;;;25.20;57.30;;;;;;5011136;28;20473;-79
2023/06/15 07:26:06;;;;;;;8.15;3.80;;;25.30;57.10;;;;;;5011173;28;20026;-80
2023/06/15 07:28:31;;;;;;;5.22;2.80;;;25.50;56.30;;;;;;5011288;28;20472;-78
2023/06/15 07:30:57;;;;;;;3.67;2.28;;;25.60;56.70;;;;;;5010555;28;20056;-79
2023/06/15 07:33:23;;;;;;;5.30;2.80;;;25.70;56.60;;;;;;5009392;28;20034;-79
2023/06/15 07:35:48;;;;;;;4.57;2.70;;;25.80;56.30;;;;;;5009034;28;20029;-79
2023/06/15 07:38:14;;;;;;;6.45;3.40;;;25.80;56.30;;;;;;5008146;28;20481;-82
2023/06/15 07:40:40;;;;;;;6.32;2.60;;;25.80;55.10;;;;;;5004715;28;20025;-80
2023/06/15 07:43:06;;;;;;;7.05;3.10;;;25.90;55.90;;;;;;5008305;28;20030;-80
2023/06/15 07:45:32;;;;;;;8.88;3.10;;;26.00;55.20;;;;;;5008305;28;20515;-79
2023/06/15 07:47:57;;;;;;;5.97;2.78;;;26.10;53.90;;;;;;5007903;28;20109;-77
2023/06/15 07:50:23;;;;;;;7.78;3.42;;;26.20;54.90;;;;;;5008401;28;20465;-79
2023/06/15 07:52:51;;;;;;;4.75;2.95;;;26.20;53.20;;;;;;5007800;28;20022;-78
2023/06/15 07:55:16;;;;;;;5.30;2.38;;;26.30;53.90;;;;;;5008350;28;20071;-79
2023/06/15 07:57:42;;;;;;;5.70;3.30;;;26.50;55.10;;;;;;5008562;28;20382;-78
2023/06/15 08:00:08;;;;;;;6.55;3.03;;;26.60;54.80;;;;;;5008664;28;20075;-78
2023/06/15 08:02:34;;;;;;;8.23;3.13;;;26.60;51.90;;;;;;5007378;28;20502;-79
2023/06/15 08:05:02;;;;;;;4.82;2.40;;;26.60;53.10;;;;;;5009744;28;20060;-79
2023/06/15 08:07:28;;;;;;;8.38;4.00;;;26.70;54.30;;;;;;5008715;28;20103;-77
2023/06/15 08:09:54;;;;;;;7.28;3.67;;;26.80;51.40;;;;;;5008559;28;20049;-80
2023/06/15 08:12:20;;;;;;;5.60;3.05;;;26.80;50.90;;;;;;5008528;28;20056;-78
2023/06/15 08:14:46;;;;;;;5.03;2.65;;;26.80;52.80;;;;;;5008707;28;20141;-79
2023/06/15 08:17:11;;;;;;;5.85;2.92;;;27.00;54.00;;;;;;5007283;28;20034;-78
2023/06/15 08:19:37;;;;;;;6.53;3.42;;;27.10;53.30;;;;;;5007998;28;20040;-79
2023/06/15 08:22:03;;;;;;;7.60;3.55;;;27.30;51.30;;;;;;5008851;28;20029;-77
2023/06/15 08:24:28;;;;;;;6.18;2.70;;;27.50;51.00;;;;;;5008927;28;20025;-79
2023/06/15 08:26:54;;;;;;;4.85;2.95;;;27.50;53.30;;;;;;5008741;28;20512;-82
2023/06/15 08:29:20;;;;;;;6.68;3.70;;;27.60;53.60;;;;;;5007586;28;20026;-79
2023/06/15 08:31:46;;;;;;;5.03;3.22;;;27.60;52.70;;;;;;5006937;28;20029;-78
2023/06/15 08:34:12;;;;;;;5.05;2.50;;;27.70;50.60;;;;;;5008224;28;20025;-80
2023/06/15 08:36:37;;;;;;;6.45;2.72;;;27.70;52.50;;;;;;5007888;28;20038;-79
2023/06/15 08:39:03;;;;;;;6.82;3.00;;;27.80;52.00;;;;;;5007207;28;20053;-77
2023/06/15 08:41:30;;;;;;;6.55;2.70;;;28.00;53.20;;;;;;5008015;28;20125;-78
2023/06/15 08:43:56;;;;;;;8.35;3.50;;;28.10;52.50;;;;;;5007459;28;20022;-79
2023/06/15 08:46:25;;;;;;;7.05;3.40;;;28.20;50.90;;;;;;5006504;28;20960;-77
2023/06/15 08:48:52;;;;;;;10.80;3.78;;;28.30;52.10;;;;;;5008628;28;20170;-80
2023/06/15 08:51:21;;;;;;;6.05;3.25;;;28.40;51.70;;;;;;5007043;28;20026;-79
2023/06/15 08:53:48;;;;;;;6.72;3.13;;;28.40;50.40;;;;;;5007122;28;20058;-77
2023/06/15 08:56:13;;;;;;;6.28;2.88;;;28.50;51.10;;;;;;5006689;28;20022;-77
2023/06/15 08:58:49;;;;;;;5.22;2.70;;;28.60;49.90;;;;;;5006936;28;20141;-77
2023/06/15 09:01:22;;;;;;;6.72;3.25;;;28.70;49.70;;;;;;5006927;28;20055;-79
2023/06/15 09:03:52;;;;;;;4.97;2.47;;;28.70;48.30;;;;;;5007711;28;20097;-78
2023/06/15 09:06:22;;;;;;;4.90;2.40;;;28.70;47.90;;;;;;5007954;28;20030;-78
2023/06/15 09:08:48;;;;;;;6.75;3.15;;;28.90;49.50;;;;;;5007540;28;20652;-78
2023/06/15 09:11:15;;;;;;;5.55;3.22;;;28.90;48.90;;;;;;5006511;28;20087;-78
2023/06/15 09:13:41;;;;;;;6.85;2.85;;;28.90;48.70;;;;;;5005201;28;20075;-77
2023/06/15 09:16:08;;;;;;;3.35;1.80;;;29.00;47.30;;;;;;5005891;28;20022;-77
2023/06/15 09:18:48;;;;;;;4.68;2.50;;;28.80;51.10;;;;;;5006795;28;20485;-78
2023/06/15 09:21:18;;;;;;;7.75;2.65;;;28.60;53.20;;;;;;5005553;28;20071;-78
2023/06/15 09:23:45;;;;;;;5.82;2.63;;;28.80;51.30;;;;;;4999813;28;20113;-78
2023/06/15 09:26:25;;;;;;;6.57;2.15;;;29.00;51.10;;;;;;5006765;28;20030;-78
2023/06/15 09:28:55;;;;;;;5.53;2.90;;;29.30;51.80;;;;;;5006554;28;20524;-78
2023/06/15 09:31:34;;;;;;;7.35;3.80;;;29.50;50.50;;;;;;5006700;28;20030;-79
2023/06/15 09:34:07;;;;;;;5.78;2.53;;;29.50;47.00;;;;;;4992827;28;20025;-78
2023/06/15 09:36:39;;;;;;;6.50;3.40;;;29.70;49.50;;;;;;5006451;28;20408;-78
2023/06/15 09:39:05;;;;;;;4.82;2.65;;;30.00;47.70;;;;;;5003650;28;20117;-79
2023/06/15 09:41:33;;;;;;;5.32;2.67;;;30.00;49.80;;;;;;5019370;28;20645;-79
2023/06/15 09:44:02;;;;;;;6.57;2.70;;;30.30;52.30;;;;;;5003547;28;20045;-79
2023/06/15 09:46:30;;;;;;;5.00;2.78;;;30.50;49.60;;;;;;5006472;28;20029;-78
2023/06/15 09:48:55;;;;;;;6.30;2.70;;;30.60;47.30;;;;;;5037443;28;20089;-80
2023/06/15 09:51:27;;;;;;;8.30;2.53;;;30.50;44.80;;;;;;5006064;28;20141;-78
2023/06/15 09:53:54;;;;;;;4.45;2.40;;;30.20;45.00;;;;;;5006534;28;20021;-80
2023/06/15 09:56:21;;;;;;;8.20;2.85;;;30.00;47.20;;;;;;5006476;28;20446;-80
2023/06/15 09:58:48;;;;;;;7.65;2.88;;;30.00;49.20;;;;;;5005617;28;20061;-79
2023/06/15 10:01:18;;;;;;;7.72;3.40;;;29.90;48.20;;;;;;5011017;28;20045;-78
2023/06/15 10:03:54;;;;;;;5.30;2.88;;;29.90;52.60;;;;;;5007844;28;20026;-80
2023/06/15 10:06:25;;;;;;;5.72;2.50;;;29.80;46.10;;;;;;5019242;28;20022;-82
2023/06/15 10:08:59;;;;;;;5.20;2.33;;;29.80;51.70;;;;;;5005969;28;20062;-82
2023/06/15 10:11:27;;;;;;;4.65;2.38;;;29.70;53.50;;;;;;5015117;28;20054;-80
2023/06/15 10:13:57;;;;;;;5.13;2.55;;;29.60;51.50;;;;;;5023808;28;20109;-81
2023/06/15 10:16:26;;;;;;;;;;;29.40;46.90;;;;;;4999871;28;20026;-81
2023/06/15 10:18:59;;;;;;;4.88;2.85;;;29.30;54.20;;;;;;5004289;28;20020;-77
2023/06/15 10:21:28;;;;;;;8.52;3.20;;;29.10;50.90;;;;;;5004593;28;20034;-79
2023/06/15 10:23:55;;;;;;;4.72;2.50;;;28.90;46.80;;;;;;5005957;28;20018;-79
2023/06/15 10:26:21;;;;;;;6.40;2.30;;;28.80;47.60;;;;;;5018379;28;20059;-81
2023/06/15 10:28:52;;;;;;;6.60;3.03;;;28.80;48.20;;;;;;5040489;28;20387;-80
2023/06/15 10:31:45;;;;;;;7.63;3.15;;;28.80;47.20;;;;;;5006441;28;20037;-81
2023/06/15 10:34:26;;;;;;;4.65;2.45;;;28.70;46.90;;;;;;4996475;28;20025;-81
2023/06/15 10:37:03;;;;;;;9.98;3.30;;;28.80;53.20;;;;;;5005159;28;20174;-77
2023/06/15 10:39:38;;;;;;;5.15;2.63;;;28.90;49.30;;;;;;5005443;28;20058;-78
2023/06/15 10:42:08;;;;;;;5.15;2.60;;;29.10;50.60;;;;;;4995725;28;20026;-77
2023/06/15 10:44:34;;;;;;;5.07;2.42;;;29.00;43.30;;;;;;5004605;28;20030;-80
2023/06/15 10:47:13;;;;;;;5.57;2.60;;;28.80;47.70;;;;;;5010674;28;20040;-79
2023/06/15 10:49:50;;;;;;;8.75;3.22;;;28.70;52.10;;;;;;5008258;28;20057;-79
2023/06/15 10:52:16;;;;;;;4.22;2.70;;;28.90;46.50;;;;;;5009182;28;20030;-81
2023/06/15 10:54:43;;;;;;;5.85;2.60;;;29.10;43.80;;;;;;5007793;28;20026;-79
2023/06/15 10:57:08;;;;;;;5.32;2.58;;;29.50;47.60;;;;;;5006646;28;20139;-80
2023/06/15 10:59:53;;;;;;;7.07;2.70;;;29.80;50.50;;;;;;5011188;28;20038;-78
2023/06/15 11:02:27;;;;;;;5.60;2.45;;;30.20;48.30;;;;;;5012788;28;20052;-79
2023/06/15 11:04:53;;;;;;;5.63;2.55;;;30.40;45.30;;;;;;5015176;28;20102;-81
2023/06/15 11:07:41;;;;;;;5.35;2.20;;;30.60;50.80;;;;;;5012479;28;20022;-80
2023/06/15 11:10:11;;;;;;;5.28;2.75;;;30.90;51.00;;;;;;5008603;28;20088;-78
2023/06/15 11:12:39;;;;;;;4.72;2.65;;;31.10;41.40;;;;;;5009922;28;20087;-79
2023/06/15 11:15:08;;;;;;;9.63;2.92;;;31.10;40.90;;;;;;5044520;28;20026;-81
2023/06/15 11:18:14;;;;;;;9.43;2.58;;;31.30;42.10;;;;;;5015757;28;20018;-81
2023/06/15 11:20:56;;;;;;;7.22;2.90;;;31.40;45.70;;;;;;5000051;28;20034;-80
2023/06/15 11:23:24;;;;;;;7.63;3.65;;;31.20;45.70;;;;;;5058907;28;20032;-80
2023/06/15 11:25:51;;;;;;;7.88;2.20;;;31.10;41.10;;;;;;5007840;28;20911;-81
2023/06/15 11:28:21;;;;;;;5.22;2.13;;;31.30;45.00;;;;;;5012290;28;20062;-83
2023/06/15 11:30:52;;;;;;;6.07;2.38;;;31.50;50.90;;;;;;5009362;28;20052;-80
2023/06/15 11:33:32;;;;;;;5.85;2.38;;;31.30;49.80;;;;;;5009404;28;20038;-82
2023/06/15 11:36:06;;;;;;;5.13;2.90;;;30.80;52.20;;;;;;5010707;28;20022;-79
2023/06/15 11:38:32;;;;;;;5.13;2.33;;;30.60;47.70;;;;;;5010009;28;20042;-81
2023/06/15 11:41:03;;;;;;;8.88;2.80;;;30.70;48.60;;;;;;5007539;28;20033;-81
2023/06/15 11:43:40;;;;;;;6.43;2.83;;;31.10;47.10;;;;;;5008459;28;20049;-81
2023/06/15 11:46:13;;;;;;;4.75;2.33;;;31.40;40.30;;;;;;5007675;28;20034;-76
2023/06/15 11:48:40;;;;;;;3.33;1.90;;;31.70;41.90;;;;;;5008683;28;20054;-78
2023/06/15 11:51:18;;;;;;;5.80;2.40;;;31.80;38.80;;;;;;5005533;28;20026;-79
2023/06/15 11:53:46;;;;;;;6.68;2.90;;;31.90;41.50;;;;;;5007087;28;20143;-76
2023/06/15 11:56:16;;;;;;;5.50;2.45;;;32.20;39.40;;;;;;5007370;28;20026;-80
2023/06/15 11:58:43;;;;;;;4.20;2.20;;;32.20;43.00;;;;;;5007766;28;20070;-77
2023/06/15 12:01:12;;;;;;;7.32;2.53;;;32.30;44.50;;;;;;5005311;28;20086;-82
2023/06/15 12:03:47;;;;;;;6.20;2.45;;;32.30;42.70;;;;;;4996526;28;20375;-79
2023/06/15 12:06:18;;;;;;;3.55;2.00;;;32.20;48.40;;;;;;5005098;28;20025;-80
2023/06/15 12:08:46;;;;;;;5.72;2.70;;;31.80;47.00;;;;;;5000895;28;20079;-79
2023/06/15 12:11:12;;;;;;;5.60;2.17;;;31.50;44.50;;;;;;5004411;28;20049;-79
2023/06/15 12:13:39;;;;;;;5.07;2.30;;;31.20;42.50;;;;;;5006199;28;20029;-80
2023/06/15 12:16:05;;;;;;;4.93;2.33;;;30.90;48.30;;;;;;5006146;28;20033;-78
2023/06/15 12:18:31;;;;;;;5.07;1.88;;;30.70;51.80;;;;;;5005849;28;20049;-80
2023/06/15 12:20:56;;;;;;;5.15;2.40;;;30.70;54.50;;;;;;5005083;28;20034;-79
2023/06/15 12:23:29;;;;;;;5.93;2.90;;;30.80;41.90;;;;;;5007646;28;20029;-77
2023/06/15 12:25:56;;;;;;;3.47;2.20;;;31.10;40.70;;;;;;4994637;28;20083;-78
2023/06/15 12:28:28;;;;;;;5.63;2.33;;;31.30;42.90;;;;;;5005715;28;20029;-80
2023/06/15 12:31:04;;;;;;;4.25;2.03;;;31.50;39.20;;;;;;5007076;28;20032;-80
2023/06/15 12:33:42;;;;;;;5.97;2.45;;;31.90;46.60;;;;;;5007546;28;20022;-77
2023/06/15 12:36:12;;;;;;;4.30;2.30;;;32.30;38.70;;;;;;4997052;28;20145;-77
2023/06/15 12:38:39;;;;;;;4.57;2.20;;;32.40;46.00;;;;;;5010827;28;20087;-82
2023/06/15 12:41:12;;;;;;;4.22;1.95;;;32.30;49.80;;;;;;5014353;28;20101;-80
2023/06/15 12:43:38;;;;;;;3.65;1.90;;;32.00;50.20;;;;;;5009094;28;20394;-81
2023/06/15 12:46:04;;;;;;;5.97;1.63;;;31.90;48.10;;;;;;5008518;28;20473;-81
2023/06/15 12:48:31;;;;;;;4.57;2.10;;;31.50;53.50;;;;;;5007506;28;20062;-81
2023/06/15 12:50:57;;;;;;;3.17;1.80;;;31.20;53.50;;;;;;5007079;28;20037;-79